Croft, United Kingdom
Current Conditions -  °F | °C
As of 11:20 AM on Friday 26 Dec 2014 (Local Time) from EGNX Reporting Station
Clear Clear  
Wind Chill: 31°   Ceiling: Unl
Heat Index: 37°   Visibility: 6mi
Dew Point: 36°   Wind: 9mph
Humidity: 93%   Direction: 200°SSW
Pressure: 30.3"   Gusts: NA
Location:  52.56°N, 1.25°W
Report Text: EGNX 261120Z 20008KT CAVOK 03/02 Q1026
Loading
Personal Weather Stations






























Interactive Weather Map New forecast layout! Learn more

10-Day Weather Forecast

Advertisements
Track Severe Weather on mobile